Time,TemperatureF,DewpointF,PressureIn,WindDirection,WindDirectionDegrees,WindSpeedMPH,WindSpeedGustMPH,Humidity,HourlyPrecipIn,Conditions,Clouds,dailyrainin,SoftwareType,DateUTC
2013-09-01 00:04:00,73.4,73.0,29.88,ESE,102,0.0,0.0,98,0.00,,,0.00,weatherlink.com 1.10,2013-09-01 04:04:00,
2013-09-01 00:19:00,73.4,73.0,29.88,ESE,102,0.0,1.0,98,0.00,,,0.00,weatherlink.com 1.10,2013-09-01 04:19:00,
2013-09-01 00:34:00,73.2,73.0,29.88,East,101,0.0,1.0,98,0.00,,,0.00,weatherlink.com 1.10,2013-09-01 04:34:00,
2013-09-01 00:49:00,73.3,73.0,29.88,NNE,18,0.0,1.0,98,0.00,,,0.00,weatherlink.com 1.10,2013-09-01 04:49:00,
2013-09-01 01:04:00,73.5,73.0,29.88,NNE,21,0.0,0.0,98,0.00,,,0.00,weatherlink.com 1.10,2013-09-01 05:04:00,
2013-09-01 01:19:00,73.1,73.0,29.87,NNE,20,0.0,0.0,98,0.00,,,0.00,weatherlink.com 1.10,2013-09-01 05:19:00,
2013-09-01 01:35:00,72.9,72.0,29.87,NNE,23,0.0,1.0,98,0.00,,,0.00,weatherlink.com 1.10,2013-09-01 05:35:00,
2013-09-01 01:50:00,72.6,72.0,29.87,NNE,23,0.0,0.0,98,0.00,,,0.00,weatherlink.com 1.10,2013-09-01 05:50:00,
2013-09-01 02:05:00,72.3,72.0,29.86,NNE,23,0.0,0.0,98,0.00,,,0.00,weatherlink.com 1.10,2013-09-01 06:05:00,
2013-09-01 02:20:00,72.2,72.0,29.86,NE,42,0.0,1.0,98,0.00,,,0.00,weatherlink.com 1.10,2013-09-01 06:20:00,
2013-09-01 02:35:00,71.9,71.0,29.86,NE,42,0.0,0.0,98,0.00,,,0.00,weatherlink.com 1.10,2013-09-01 06:35:00,
2013-09-01 02:50:00,71.7,71.0,29.86,NE,42,0.0,0.0,98,0.00,,,0.00,weatherlink.com 1.10,2013-09-01 06:50:00,
2013-09-01 03:05:00,71.5,71.0,29.87,NE,42,0.0,0.0,98,0.00,,,0.00,weatherlink.com 1.10,2013-09-01 07:05:00,
2013-09-01 03:20:00,71.5,71.0,29.87,NE,42,0.0,0.0,98,0.00,,,0.00,weatherlink.com 1.10,2013-09-01 07:20:00,
2013-09-01 03:35:00,71.5,71.0,29.87,NE,42,0.0,0.0,98,0.00,,,0.00,weatherlink.com 1.10,2013-09-01 07:35:00,
2013-09-01 03:50:00,71.4,71.0,29.87,NE,42,0.0,0.0,98,0.00,,,0.00,weatherlink.com 1.10,2013-09-01 07:50:00,
2013-09-01 04:05:00,71.3,71.0,29.87,NE,42,0.0,0.0,98,0.00,,,0.00,weatherlink.com 1.10,2013-09-01 08:05:00,
2013-09-01 04:20:00,71.4,71.0,29.86,NE,42,0.0,0.0,99,0.00,,,0.00,weatherlink.com 1.10,2013-09-01 08:20:00,
2013-09-01 04:37:00,71.4,71.0,29.86,NE,42,0.0,0.0,99,0.00,,,0.00,weatherlink.com 1.10,2013-09-01 08:37:00,
2013-09-01 04:50:00,71.5,71.0,29.86,NE,42,0.0,0.0,99,0.00,,,0.00,weatherlink.com 1.10,2013-09-01 08:50:00,
2013-09-01 05:05:00,71.4,71.0,29.85,NE,42,0.0,0.0,98,0.00,,,0.00,weatherlink.com 1.10,2013-09-01 09:05:00,
2013-09-01 05:20:00,71.1,71.0,29.85,NE,42,0.0,0.0,98,0.00,,,0.00,weatherlink.com 1.10,2013-09-01 09:20:00,
2013-09-01 05:35:00,70.9,70.0,29.84,NE,42,0.0,0.0,98,0.00,,,0.00,weatherlink.com 1.10,2013-09-01 09:35:00,
2013-09-01 05:50:00,70.6,70.0,29.84,NE,42,0.0,0.0,98,0.00,,,0.00,weatherlink.com 1.10,2013-09-01 09:50:00,
2013-09-01 06:05:00,70.6,70.0,29.85,NE,42,0.0,0.0,99,0.00,,,0.00,weatherlink.com 1.10,2013-09-01 10:05:00,
2013-09-01 06:20:00,70.7,70.0,29.86,NE,42,0.0,0.0,99,0.00,,,0.00,weatherlink.com 1.10,2013-09-01 10:20:00,
2013-09-01 06:35:00,70.8,71.0,29.86,NE,42,0.0,0.0,99,0.00,,,0.00,weatherlink.com 1.10,2013-09-01 10:35:00,
2013-09-01 06:50:00,70.9,71.0,29.87,NE,42,0.0,0.0,99,0.00,,,0.00,weatherlink.com 1.10,2013-09-01 10:50:00,
2013-09-01 07:05:00,70.7,70.0,29.87,NE,42,0.0,2.0,98,0.00,,,0.00,weatherlink.com 1.10,2013-09-01 11:05:00,
2013-09-01 07:20:00,70.6,70.0,29.87,NE,42,0.0,0.0,98,0.00,,,0.00,weatherlink.com 1.10,2013-09-01 11:20:00,
2013-09-01 07:35:00,70.7,70.0,29.88,NE,42,0.0,0.0,98,0.00,,,0.00,weatherlink.com 1.10,2013-09-01 11:35:00,
2013-09-01 07:50:00,70.9,70.0,29.88,NE,42,0.0,0.0,98,0.00,,,0.00,weatherlink.com 1.10,2013-09-01 11:50:00,
2013-09-01 08:05:00,71.3,71.0,29.88,NE,42,0.0,0.0,98,0.00,,,0.00,weatherlink.com 1.10,2013-09-01 12:05:00,
2013-09-01 08:22:00,72.0,71.0,29.89,NE,42,0.0,0.0,97,0.00,,,0.00,weatherlink.com 1.10,2013-09-01 12:22:00,
2013-09-01 08:35:00,72.7,72.0,29.89,NE,42,0.0,1.0,96,0.00,,,0.00,weatherlink.com 1.10,2013-09-01 12:35:00,
2013-09-01 08:50:00,73.2,72.0,29.89,NE,41,0.0,0.0,96,0.00,,,0.00,weatherlink.com 1.10,2013-09-01 12:50:00,
2013-09-01 09:05:00,73.8,73.0,29.89,NE,41,0.0,1.0,96,0.00,,,0.00,weatherlink.com 1.10,2013-09-01 13:05:00,
2013-09-01 09:20:00,74.2,73.0,29.91,NE,40,0.0,0.0,95,0.01,,,0.01,weatherlink.com 1.10,2013-09-01 13:20:00,
2013-09-01 09:35:00,73.9,73.0,29.90,NNW,346,0.0,1.0,96,0.16,,,0.16,weatherlink.com 1.10,2013-09-01 13:35:00,
2013-09-01 09:50:00,73.6,73.0,29.90,NNW,345,0.0,1.0,97,0.19,,,0.19,weatherlink.com 1.10,2013-09-01 13:50:00,
2013-09-01 10:05:00,73.5,73.0,29.91,East,90,0.0,1.0,97,0.21,,,0.21,weatherlink.com 1.10,2013-09-01 14:05:00,
2013-09-01 10:20:00,72.3,71.0,29.90,SE,128,2.0,3.0,95,0.35,,,0.36,weatherlink.com 1.10,2013-09-01 14:20:00,
2013-09-01 10:35:00,71.5,71.0,29.91,SSW,194,0.0,0.0,97,0.28,,,0.45,weatherlink.com 1.10,2013-09-01 14:35:00,
2013-09-01 10:50:00,71.4,71.0,29.91,South,186,0.0,0.0,97,0.26,,,0.45,weatherlink.com 1.10,2013-09-01 14:50:00,
2013-09-01 11:05:00,71.4,71.0,29.91,SSW,193,0.0,0.0,98,0.24,,,0.45,weatherlink.com 1.10,2013-09-01 15:05:00,
2013-09-01 11:20:00,71.4,71.0,29.91,SW,224,0.0,1.0,98,0.10,,,0.46,weatherlink.com 1.10,2013-09-01 15:20:00,
2013-09-01 11:35:00,71.8,71.0,29.90,SSW,207,1.0,1.0,98,0.01,,,0.46,weatherlink.com 1.10,2013-09-01 15:35:00,
2013-09-01 11:50:00,72.3,72.0,29.89,SW,225,0.0,1.0,98,0.01,,,0.46,weatherlink.com 1.10,2013-09-01 15:50:00,
2013-09-01 12:05:00,73.0,72.0,29.88,SW,222,0.0,1.0,98,0.01,,,0.46,weatherlink.com 1.10,2013-09-01 16:05:00,
2013-09-01 12:20:00,73.9,73.0,29.88,SW,227,0.0,1.0,98,0.00,,,0.46,weatherlink.com 1.10,2013-09-01 16:20:00,
2013-09-01 12:35:00,75.0,74.0,29.88,South,174,0.0,1.0,98,0.00,,,0.46,weatherlink.com 1.10,2013-09-01 16:35:00,
2013-09-01 12:50:00,76.6,75.0,29.87,SSW,209,0.0,2.0,96,0.00,,,0.46,weatherlink.com 1.10,2013-09-01 16:50:00,
2013-09-01 13:05:00,78.7,76.0,29.87,WNW,287,0.0,2.0,91,0.00,,,0.46,weatherlink.com 1.10,2013-09-01 17:05:00,
2013-09-01 13:21:00,79.5,75.0,29.87,ENE,78,1.0,2.0,87,0.00,,,0.46,weatherlink.com 1.10,2013-09-01 17:21:00,
2013-09-01 13:36:00,80.4,77.0,29.87,ESE,107,0.0,1.0,88,0.00,,,0.46,weatherlink.com 1.10,2013-09-01 17:36:00,
2013-09-01 13:51:00,82.0,77.0,29.86,WSW,255,0.0,2.0,84,0.00,,,0.46,weatherlink.com 1.10,2013-09-01 17:51:00,
2013-09-01 14:06:00,83.0,77.0,29.84,West,271,0.0,3.0,81,0.00,,,0.46,weatherlink.com 1.10,2013-09-01 18:06:00,
2013-09-01 14:21:00,83.8,78.0,29.85,WSW,254,0.0,2.0,82,0.00,,,0.46,weatherlink.com 1.10,2013-09-01 18:21:00,
2013-09-01 14:36:00,85.3,77.0,29.85,SE,124,2.0,4.0,77,0.00,,,0.46,weatherlink.com 1.10,2013-09-01 18:36:00,
2013-09-01 14:51:00,85.6,78.0,29.85,ESE,110,0.0,5.0,77,0.00,,,0.46,weatherlink.com 1.10,2013-09-01 18:51:00,
2013-09-01 15:06:00,86.6,78.0,29.84,WNW,296,0.0,2.0,76,0.00,,,0.46,weatherlink.com 1.10,2013-09-01 19:06:00,
2013-09-01 15:21:00,87.0,78.0,29.84,East,92,0.0,3.0,74,0.00,,,0.46,weatherlink.com 1.10,2013-09-01 19:21:00,
2013-09-01 15:36:00,78.7,72.0,29.84,SE,125,0.0,4.0,81,0.17,,,0.63,weatherlink.com 1.10,2013-09-01 19:36:00,
2013-09-01 15:51:00,73.8,71.0,29.84,ESE,105,0.0,1.0,90,0.20,,,0.66,weatherlink.com 1.10,2013-09-01 19:51:00,
2013-09-01 16:06:00,73.1,71.0,29.84,ESE,105,0.0,1.0,94,0.20,,,0.66,weatherlink.com 1.10,2013-09-01 20:06:00,
2013-09-01 16:21:00,73.3,72.0,29.84,NE,53,0.0,1.0,95,0.20,,,0.66,weatherlink.com 1.10,2013-09-01 20:21:00,
2013-09-01 16:36:00,73.6,72.0,29.84,North,5,0.0,0.0,96,0.02,,,0.66,weatherlink.com 1.10,2013-09-01 20:36:00,
2013-09-01 16:51:00,73.9,72.0,29.85,WSW,244,0.0,1.0,95,0.00,,,0.66,weatherlink.com 1.10,2013-09-01 20:51:00,
2013-09-01 17:06:00,74.2,73.0,29.84,WSW,244,0.0,1.0,95,0.00,,,0.66,weatherlink.com 1.10,2013-09-01 21:06:00,
2013-09-01 17:21:00,74.6,73.0,29.84,WSW,252,0.0,1.0,94,0.00,,,0.66,weatherlink.com 1.10,2013-09-01 21:21:00,
2013-09-01 17:36:00,75.6,73.0,29.84,SSW,198,0.0,1.0,92,0.00,,,0.66,weatherlink.com 1.10,2013-09-01 21:36:00,
2013-09-01 17:51:00,76.5,74.0,29.84,SSW,198,0.0,0.0,92,0.00,,,0.66,weatherlink.com 1.10,2013-09-01 21:51:00,
2013-09-01 18:06:00,77.2,75.0,29.84,South,187,0.0,0.0,92,0.00,,,0.66,weatherlink.com 1.10,2013-09-01 22:06:00,
2013-09-01 18:21:00,77.2,75.0,29.84,SSW,212,0.0,1.0,91,0.00,,,0.66,weatherlink.com 1.10,2013-09-01 22:21:00,
2013-09-01 18:36:00,77.2,75.0,29.84,SSW,212,0.0,0.0,91,0.00,,,0.66,weatherlink.com 1.10,2013-09-01 22:36:00,
2013-09-01 18:51:00,77.0,75.0,29.84,SSW,212,0.0,0.0,92,0.00,,,0.66,weatherlink.com 1.10,2013-09-01 22:51:00,
2013-09-01 19:06:00,76.9,75.0,29.84,SSW,212,0.0,0.0,94,0.00,,,0.66,weatherlink.com 1.10,2013-09-01 23:06:00,
2013-09-01 19:21:00,76.4,75.0,29.84,SSW,212,0.0,0.0,94,0.00,,,0.66,weatherlink.com 1.10,2013-09-01 23:21:00,
2013-09-01 19:36:00,75.9,74.0,29.84,SSW,212,0.0,0.0,95,0.00,,,0.66,weatherlink.com 1.10,2013-09-01 23:36:00,
2013-09-01 19:51:00,75.4,74.0,29.84,SSW,212,0.0,0.0,96,0.00,,,0.66,weatherlink.com 1.10,2013-09-01 23:51:00,
2013-09-01 20:06:00,75.0,74.0,29.84,SSW,212,0.0,0.0,96,0.00,,,0.66,weatherlink.com 1.10,2013-09-02 00:06:00,
2013-09-01 20:21:00,74.6,74.0,29.84,SSW,212,0.0,0.0,97,0.00,,,0.66,weatherlink.com 1.10,2013-09-02 00:21:00,
2013-09-01 20:36:00,74.2,73.0,29.84,South,187,0.0,0.0,97,0.00,,,0.66,weatherlink.com 1.10,2013-09-02 00:36:00,
2013-09-01 20:51:00,73.6,73.0,29.84,South,187,0.0,0.0,97,0.00,,,0.66,weatherlink.com 1.10,2013-09-02 00:51:00,
2013-09-01 21:06:00,73.5,73.0,29.85,South,186,0.0,0.0,97,0.00,,,0.66,weatherlink.com 1.10,2013-09-02 01:06:00,
2013-09-01 21:21:00,73.2,72.0,29.85,South,186,0.0,0.0,97,0.00,,,0.66,weatherlink.com 1.10,2013-09-02 01:21:00,
2013-09-01 21:36:00,73.2,72.0,29.87,South,185,0.0,0.0,97,0.00,,,0.66,weatherlink.com 1.10,2013-09-02 01:36:00,
2013-09-01 21:51:00,72.8,72.0,29.88,South,185,0.0,0.0,97,0.00,,,0.66,weatherlink.com 1.10,2013-09-02 01:51:00,
2013-09-01 22:06:00,72.9,72.0,29.88,South,184,0.0,0.0,98,0.00,,,0.66,weatherlink.com 1.10,2013-09-02 02:06:00,
2013-09-01 22:21:00,72.8,72.0,29.89,South,184,0.0,0.0,98,0.00,,,0.66,weatherlink.com 1.10,2013-09-02 02:21:00,
2013-09-01 22:36:00,72.9,72.0,29.89,South,184,0.0,0.0,98,0.00,,,0.66,weatherlink.com 1.10,2013-09-02 02:36:00,
2013-09-01 22:51:00,72.6,72.0,29.89,South,184,0.0,0.0,98,0.00,,,0.66,weatherlink.com 1.10,2013-09-02 02:51:00,
2013-09-01 23:08:00,72.1,71.0,29.89,South,182,0.0,0.0,97,0.00,,,0.66,weatherlink.com 1.10,2013-09-02 03:08:00,
2013-09-01 23:21:00,71.9,71.0,29.89,South,182,0.0,0.0,98,0.00,,,0.66,weatherlink.com 1.10,2013-09-02 03:21:00,
2013-09-01 23:36:00,71.5,71.0,29.88,South,182,0.0,0.0,98,0.00,,,0.66,weatherlink.com 1.10,2013-09-02 03:36:00,
2013-09-01 23:52:00,71.4,71.0,29.88,South,184,0.0,0.0,98,0.00,,,0.66,weatherlink.com 1.10,2013-09-02 03:52:00,